Cape Cod — WBK3243 — position and weather

sailwx.info

Track history (hours):
 
Tides and Currents Weather Stations Pressure Air Temp Water Temp Dewpoint Dewpoint Depression Visibility Wind Speed Wind Dir Waves Ship Positions

Cape Cod

Owner: MORAN TOWING CORPORATION, New Canaan, CT. More information available from US FCC via Universal Licensing System and Coast Guard Vessel Documentation Center.

Last reported at 2017-Mar-23 21:33 UTC. Time now 2017-Mar-23 21:58 UTC.
Position N 39°53' W 075°11'.

Length 33 m; draft 4.8 m.

Type: Tug. MMSI: 366939770.

Date/timePositionNaut miles runAvg speedWind from/ knotsBaromVisibWave heightAir tempDewpointWater temp
2017-Mar-23 21:33N 39°53' W 075°11'2 1.6
2017-Mar-23 20:33N 39°53' W 075°09'1 1.3
2017-Mar-23 19:33N 39°54' W 075°08'1 1.1
2017-Mar-23 18:33N 39°55' W 075°08'0 0.3
2017-Mar-23 17:33N 39°55' W 075°08'1 1.0
2017-Mar-23 16:34N 39°54' W 075°08'0 0.3
2017-Mar-23 15:33N 39°54' W 075°08'4 3.9
2017-Mar-23 14:33N 39°52' W 075°13'9 9.3
2017-Mar-23 13:33N 39°49' W 075°24'0 0.3
2017-Mar-23 12:33N 39°49' W 075°24'1 1.3
2017-Mar-23 11:33N 39°48' W 075°26'7 6.7
2017-Mar-23 10:33N 39°51' W 075°18'6 6.1
2017-Mar-23 09:33N 39°53' W 075°11'0 0.0
2017-Mar-23 08:33N 39°53' W 075°11'0 0.0
2017-Mar-23 07:34N 39°53' W 075°11'0 0.0
2017-Mar-23 06:34N 39°53' W 075°11'0 0.0
2017-Mar-23 05:33N 39°53' W 075°11'3 2.6
2017-Mar-23 04:33N 39°55' W 075°08'8 7.9
2017-Mar-23 03:33N 40°01' W 075°02'1 0.2
2017-Mar-22 22:33N 40°01' W 075°01'8 8.1
2017-Mar-22 21:33N 39°56' W 075°08'3 3.3
2017-Mar-22 20:33N 39°53' W 075°11'1 1.5
2017-Mar-22 19:33N 39°54' W 075°12'1 0.3
2017-Mar-22 17:33N 39°54' W 075°12'0 0.5
2017-Mar-22 16:33N 39°53' W 075°12'1 0.9
2017-Mar-22 15:33N 39°53' W 075°11'0 0.0
2017-Mar-22 14:34N 39°53' W 075°11'2 2.2
2017-Mar-22 13:33N 39°52' W 075°13'0 0.0
2017-Mar-22 12:24N 39°52' W 075°13'1 1.0
2017-Mar-22 11:34N 39°52' W 075°14'3 3.0
2017-Mar-22 10:33N 39°53' W 075°11'0 0.0
2017-Mar-22 09:33N 39°53' W 075°11'0 0.0
2017-Mar-22 08:34N 39°53' W 075°11'0 0.0
2017-Mar-22 07:33N 39°53' W 075°11'0 0.0
2017-Mar-22 06:34N 39°53' W 075°11'0 0.0
2017-Mar-22 05:33N 39°53' W 075°11'0 0.0
2017-Mar-22 04:33N 39°53' W 075°11'0 0.0
2017-Mar-22 03:34N 39°53' W 075°11'0 0.0
2017-Mar-22 02:33N 39°53' W 075°11'0 0.0
2017-Mar-22 01:33N 39°53' W 075°11'0 0.0
2017-Mar-22 00:33N 39°53' W 075°11'0 0.0
2017-Mar-21 23:33N 39°53' W 075°11'0 0.0
2017-Mar-21 22:33N 39°53' W 075°11'0 0.0
2017-Mar-21 21:33N 39°53' W 075°11'0 0.0
2017-Mar-21 20:33N 39°53' W 075°11'0 0.3
2017-Mar-21 19:33N 39°53' W 075°11'  
2017-Mar-19 03:31N 39°42' W 075°31'1010.6
2017-Mar-19 02:33N 39°32' W 075°33'9 1.2
2017-Mar-18 19:31N 39°24' W 075°30'7 7.0
2017-Mar-18 18:34N 39°30' W 075°33'7 7.4
2017-Mar-18 17:33N 39°37' W 075°35'6 0.2
2017-Mar-17 08:30N 39°43' W 075°30'9 9.8
2017-Mar-17 07:33N 39°34' W 075°33'10 1.6
2017-Mar-17 01:15N 39°24' W 075°30'1014.0
2017-Mar-17 00:33N 39°33' W 075°33'9 0.3
2017-Mar-15 20:04N 39°43' W 075°31'1 2.7
2017-Mar-15 19:33N 39°41' W 075°31'  
Track history (hours):
 
Tides and Currents Weather Stations Pressure Air Temp Water Temp Dewpoint Dewpoint Depression Visibility Wind Speed Wind Dir Waves Ship Positions

Cape Cod

Owner: MORAN TOWING CORPORATION, New Canaan, CT. More information available from US FCC via Universal Licensing System and Coast Guard Vessel Documentation Center.

Last reported at 2017-Mar-23 21:33 UTC. Time now 2017-Mar-23 21:58 UTC.
Position N 39°53' W 075°11'.

Length 33 m; draft 4.8 m.

Type: Tug. MMSI: 366939770.

Date/timePositionNaut miles runAvg speedWind from/ knotsBaromVisibWave heightAir tempDewpointWater temp
2017-Mar-23 21:33N 39°53' W 075°11'2 1.6
2017-Mar-23 20:33N 39°53' W 075°09'1 1.3
2017-Mar-23 19:33N 39°54' W 075°08'1 1.1
2017-Mar-23 18:33N 39°55' W 075°08'0 0.3
2017-Mar-23 17:33N 39°55' W 075°08'1 1.0
2017-Mar-23 16:34N 39°54' W 075°08'0 0.3
2017-Mar-23 15:33N 39°54' W 075°08'4 3.9
2017-Mar-23 14:33N 39°52' W 075°13'9 9.3
2017-Mar-23 13:33N 39°49' W 075°24'0 0.3
2017-Mar-23 12:33N 39°49' W 075°24'1 1.3
2017-Mar-23 11:33N 39°48' W 075°26'7 6.7
2017-Mar-23 10:33N 39°51' W 075°18'6 6.1
2017-Mar-23 09:33N 39°53' W 075°11'0 0.0
2017-Mar-23 08:33N 39°53' W 075°11'0 0.0
2017-Mar-23 07:34N 39°53' W 075°11'0 0.0
2017-Mar-23 06:34N 39°53' W 075°11'0 0.0
2017-Mar-23 05:33N 39°53' W 075°11'3 2.6
2017-Mar-23 04:33N 39°55' W 075°08'8 7.9
2017-Mar-23 03:33N 40°01' W 075°02'1 0.2
2017-Mar-22 22:33N 40°01' W 075°01'8 8.1
2017-Mar-22 21:33N 39°56' W 075°08'3 3.3
2017-Mar-22 20:33N 39°53' W 075°11'1 1.5
2017-Mar-22 19:33N 39°54' W 075°12'1 0.3
2017-Mar-22 17:33N 39°54' W 075°12'0 0.5
2017-Mar-22 16:33N 39°53' W 075°12'1 0.9
2017-Mar-22 15:33N 39°53' W 075°11'0 0.0
2017-Mar-22 14:34N 39°53' W 075°11'2 2.2
2017-Mar-22 13:33N 39°52' W 075°13'0 0.0
2017-Mar-22 12:24N 39°52' W 075°13'1 1.0
2017-Mar-22 11:34N 39°52' W 075°14'3 3.0
2017-Mar-22 10:33N 39°53' W 075°11'0 0.0
2017-Mar-22 09:33N 39°53' W 075°11'0 0.0
2017-Mar-22 08:34N 39°53' W 075°11'0 0.0
2017-Mar-22 07:33N 39°53' W 075°11'0 0.0
2017-Mar-22 06:34N 39°53' W 075°11'0 0.0
2017-Mar-22 05:33N 39°53' W 075°11'0 0.0
2017-Mar-22 04:33N 39°53' W 075°11'0 0.0
2017-Mar-22 03:34N 39°53' W 075°11'0 0.0
2017-Mar-22 02:33N 39°53' W 075°11'0 0.0
2017-Mar-22 01:33N 39°53' W 075°11'0 0.0
2017-Mar-22 00:33N 39°53' W 075°11'0 0.0
2017-Mar-21 23:33N 39°53' W 075°11'0 0.0
2017-Mar-21 22:33N 39°53' W 075°11'0 0.0
2017-Mar-21 21:33N 39°53' W 075°11'0 0.0
2017-Mar-21 20:33N 39°53' W 075°11'0 0.3
2017-Mar-21 19:33N 39°53' W 075°11'  
2017-Mar-19 03:31N 39°42' W 075°31'1010.6
2017-Mar-19 02:33N 39°32' W 075°33'9 1.2
2017-Mar-18 19:31N 39°24' W 075°30'7 7.0
2017-Mar-18 18:34N 39°30' W 075°33'7 7.4
2017-Mar-18 17:33N 39°37' W 075°35'6 0.2
2017-Mar-17 08:30N 39°43' W 075°30'9 9.8
2017-Mar-17 07:33N 39°34' W 075°33'10 1.6
2017-Mar-17 01:15N 39°24' W 075°30'1014.0
2017-Mar-17 00:33N 39°33' W 075°33'9 0.3
2017-Mar-15 20:04N 39°43' W 075°31'1 2.7
2017-Mar-15 19:33N 39°41' W 075°31'  

Dump ship's entire track history